Loyal, WI (54446)

1:57 PM CST on December 07, 2016 (GMT -0600)
Marshfield Municipal | | Change Station

Elev 1276 ft 44.64 °N, 90.19 °W | Updated 3 minutes ago

Overcast
Overcast
20 °F
Feels Like 7 °F
N
14
Wind Variable Wind from West
Gusts 26 mph

Today
High -- | Low -- °F
--% Chance of Precip.
Yesterday
High -- | Low -- °F
Precip. -- in
Pressure 29.99 in
Visibility 10.0 miles
Clouds Overcast 2400 ft
Windchill 7 °F
Dew Point 12 °F
Humidity 71%
Rainfall 0.00 in
Snow Depth Not available.
7:26 AM 4:21 PM
First Quarter, 55% visible
METAR KMFI 071954Z AUTO 27012G23KT 10SM OVC024 M07/M11 A2992 RMK AO2 PK WND 27027/1930 UPB32E41 SLP153 P0000 T10671111
Pressure 29.99 in
Visibility 10.0 miles
Clouds Overcast 2400 ft
Windchill 7 °F
Dew Point 12 °F
Humidity 71%
Rainfall 0.00 in
Snow Depth Not available.
7:26 AM 4:21 PM
First Quarter, 55% visible
METAR KMFI 071954Z AUTO 27012G23KT 10SM OVC024 M07/M11 A2992 RMK AO2 PK WND 27027/1930 UPB32E41 SLP153 P0000 T10671111

10-Day Weather Forecast

Almanac

Astronomy

Dec. 07, 2016 Rise Set
Actual Time
Civil Twilight
Nautical Twilight
Astronomical Twilight
Moon
Length of Visible Light
Length of Day
Tomorrow will be .
, % of the Moon is Illuminated

Today's Extremes

State Highs State Lows

Community

WunderPhotos

Upload Photos

1,956,164 photos uploaded!

WunderBlog® & News

Nearby

Air Quality

  Air Quality AQ Index Pollutant
Not available.

Snow Depth

Station Depth Elevation

Earthquake Activity

City Distance Mag. Time & Date
Minimum magnitude displayed is 2.5.

Coastal Water Temperatures

Place Temperature

Stations

Nearby Weather Stations

Station Location Temp. Windchill Dew Point Humidity Wind Precip. Elev Updated Type
                   

Watches & Warnings

There are currently no watches in effect.